Time;durP1;ratioP1;P1;durP2;ratioP2;P2;SDS_P1;SDS_P2;PMS_P1;PMS_P2;Temp;Humidity;BMP_temperature;BMP_pressure;BME280_temperature;BME280_humidity;BME280_pressure;Samples;Min_cycle;Max_cycle;Signal;HPM_P1;HPM_P2
2022/05/07 04:21:19;;;;;;;;;;;;;;;11.10;100.00;98681.34;4872767;23;19977;-72
2022/05/07 04:23:48;;;;;;;;;;;;;;;11.10;100.00;98686.94;4864631;29;20401;-71
2022/05/07 04:26:16;;;;;;;;;;;;;;;11.13;100.00;98680.56;4863291;29;19953;-72
2022/05/07 04:28:48;;;;;;;;;;;;;;;11.13;100.00;98677.78;4858462;29;19966;-71
2022/05/07 04:31:17;;;;;;;;;;;;;;;11.11;100.00;98684.94;4855592;29;19957;-70
2022/05/07 04:33:52;;;;;;;;;;;;;;;11.12;100.00;98690.19;4862600;29;19956;-71
2022/05/07 04:36:21;;;;;;;;;;;;;;;11.11;100.00;98690.53;4864166;29;19957;-71
2022/05/07 04:38:48;;;;;;;;;;;;;;;11.08;100.00;98685.72;4865139;29;20335;-71
2022/05/07 04:41:23;;;;;;;;;;;;;;;11.12;100.00;98692.97;4863809;29;19962;-71
2022/05/07 04:43:50;;;;;;;;;;;;;;;11.10;100.00;98692.53;4864529;29;20373;-71
2022/05/07 04:46:17;;;;;;;;;;;;;;;11.11;100.00;98694.16;4864030;29;19949;-71
2022/05/07 04:48:52;;;;;;;;;;;;;;;11.13;100.00;98700.16;4863886;29;20313;-71
2022/05/07 04:51:22;;;;;;;;;;;;;;;11.15;100.00;98697.00;4862863;29;19948;-71
2022/05/07 04:54:12;;;;;;;;;;;;;;;11.13;100.00;98702.16;4879202;29;19957;-71
2022/05/07 04:56:41;;;;;;;;;;;;;;;11.15;100.00;98694.19;4863577;29;19952;-71
2022/05/07 04:59:08;;;;;;;;;;;;;;;11.17;100.00;98697.41;4864870;29;20021;-71
2022/05/07 05:01:47;;;;;;;;;;;;;;;11.18;100.00;98704.56;4863470;29;19949;-71
2022/05/07 05:04:16;;;;;;;;;;;;;;;11.18;100.00;98710.19;4863147;29;19959;-71
2022/05/07 05:06:44;;;;;;;;;;;;;;;11.16;100.00;98701.38;4863595;29;19961;-71
2022/05/07 05:09:14;;;;;;;;;;;;;;;11.23;100.00;98707.00;4863562;29;19977;-71
2022/05/07 05:11:57;;;;;;;;;;;;;;;11.22;100.00;98705.41;4879454;29;19947;-71
2022/05/07 05:17:11;;;;;;;;;;;;;;;11.27;100.00;98704.22;4863668;29;19949;-71
2022/05/07 05:19:44;;;;;;;;;;;;;;;11.31;100.00;98702.25;4863434;29;19977;-71
2022/05/07 05:22:16;;;;;;;;;;;;;;;11.33;100.00;98699.84;4863184;29;20340;-71
2022/05/07 05:24:44;;;;;;;;;;;;;;;11.26;100.00;98703.44;4878537;29;19951;-71
2022/05/07 05:27:12;;;;;;;;;;;;;;;11.30;100.00;98698.63;4863413;29;19949;-72
2022/05/07 05:29:46;;;;;;;;;;;;;;;11.31;100.00;98710.66;4862693;29;19974;-71
2022/05/07 05:32:18;;;;;;;;;;;;;;;11.32;100.00;98703.88;4862364;29;19950;-70
2022/05/07 05:34:53;;;;;;;;;;;;;;;11.32;100.00;98713.03;4862907;29;19950;-71
2022/05/07 05:37:27;;;;;;;;;;;;;;;11.33;100.00;98708.25;4863585;29;19949;-71
2022/05/07 05:39:55;;;;;;;;;;;;;;;11.35;100.00;98709.47;4862500;29;19957;-70
2022/05/07 05:42:26;;;;;;;;;;;;;;;11.37;100.00;98712.66;4862306;29;19961;-70
2022/05/07 05:44:53;;;;;;;;;;;;;;;11.40;100.00;98727.88;4863704;29;19964;-71
2022/05/07 05:47:24;;;;;;;;;;;;;;;11.38;100.00;98716.28;4862420;29;20355;-71
2022/05/07 05:49:52;;;;;;;;;;;;;;;11.41;100.00;98712.69;4862761;29;20270;-71
2022/05/07 05:52:27;;;;;;;;;;;;;;;11.40;100.00;98719.47;4863170;29;19951;-70
2022/05/07 05:54:55;;;;;;;;;;;;;;;11.41;100.00;98729.50;4859329;29;19950;-70
2022/05/07 05:57:22;;;;;;;;;;;;;;;11.38;100.00;98725.47;4859088;29;19958;-71
2022/05/07 05:59:49;;;;;;;;;;;;;;;11.39;100.00;98726.28;4861741;29;19951;-71
2022/05/07 06:02:18;;;;;;;;;;;;;;;11.40;100.00;98727.88;4861596;29;19959;-71
2022/05/07 06:05:01;;;;;;;;;;;;;;;11.35;100.00;98725.44;4861917;29;20247;-70
2022/05/07 06:07:30;;;;;;;;;;;;;;;11.38;100.00;98731.09;4872475;29;19956;-71
2022/05/07 06:10:00;;;;;;;;;;;;;;;11.37;100.00;98737.09;4851814;29;19972;-71
2022/05/07 06:12:30;;;;;;;;;;;;;;;11.39;100.00;98723.50;4867972;29;19956;-71
2022/05/07 06:14:58;;;;;;;;;;;;;;;11.36;100.00;98733.47;4863125;29;19953;-71
2022/05/07 06:17:29;;;;;;;;;;;;;;;11.37;100.00;98728.69;4861673;29;19948;-71
2022/05/07 06:19:57;;;;;;;;;;;;;;;11.42;100.00;98736.72;4877801;29;20004;-71
2022/05/07 06:22:25;;;;;;;;;;;;;;;11.40;100.00;98734.28;4862455;29;19958;-71
2022/05/07 06:27:52;;;;;;;;;;;;;;;11.43;100.00;98715.91;4862945;29;19956;-71
2022/05/07 06:30:30;;;;;;;;;;;;;;;11.46;100.00;98727.13;4858425;29;19996;-71
2022/05/07 06:32:59;;;;;;;;;;;;;;;11.45;100.00;98738.69;4850471;29;19951;-71
2022/05/07 06:35:33;;;;;;;;;;;;;;;11.48;100.00;98730.34;4876189;29;19954;-71
2022/05/07 06:38:09;;;;;;;;;;;;;;;11.54;100.00;98730.75;4861801;29;19950;-71
2022/05/07 06:40:38;;;;;;;;;;;;;;;11.57;100.00;98738.34;4858155;29;20358;-71
2022/05/07 06:43:06;;;;;;;;;;;;;;;11.48;100.00;98733.13;4860331;29;19949;-71
2022/05/07 06:45:46;;;;;;;;;;;;;;;11.53;100.00;98737.53;4869888;29;19952;-71
2022/05/07 06:48:15;;;;;;;;;;;;;;;11.57;100.00;98732.75;4843823;29;20245;-71
2022/05/07 06:50:42;;;;;;;;;;;;;;;11.58;100.00;98725.97;4858969;29;20526;-71
2022/05/07 06:53:10;;;;;;;;;;;;;;;11.57;100.00;98730.75;4867392;29;19950;-71
2022/05/07 06:55:54;;;;;;;;;;;;;;;11.62;100.00;98732.38;4861969;29;19950;-70
2022/05/07 06:58:22;;;;;;;;;;;;;;;11.61;100.00;98731.59;4862196;29;20223;-71
2022/05/07 07:00:51;;;;;;;;;;;;;;;11.58;100.00;98737.16;4862116;29;19953;-71
2022/05/07 07:03:18;;;;;;;;;;;;;;;11.62;100.00;98740.78;4860059;29;19947;-70
2022/05/07 07:05:47;;;;;;;;;;;;;;;11.57;100.00;98735.56;4859955;29;19953;-71
2022/05/07 07:08:14;;;;;;;;;;;;;;;11.63;100.00;98734.81;4858311;29;19963;-71
2022/05/07 07:10:42;;;;;;;;;;;;;;;11.69;100.00;98738.84;4862185;29;20366;-71
2022/05/07 07:13:09;;;;;;;;;;;;;;;11.66;100.00;98738.81;4853966;29;19958;-71
2022/05/07 07:15:40;;;;;;;;;;;;;;;11.67;100.00;98730.00;4860591;29;19951;-70
2022/05/07 07:18:11;;;;;;;;;;;;;;;11.67;100.00;98735.59;4850694;29;19954;-71
2022/05/07 07:20:40;;;;;;;;;;;;;;;11.70;100.00;98734.84;4844018;29;19977;-71
2022/05/07 07:23:11;;;;;;;;;;;;;;;11.68;100.00;98733.66;4853359;29;19958;-71
2022/05/07 07:25:40;;;;;;;;;;;;;;;11.69;100.00;98730.44;4862849;29;20305;-71
2022/05/07 07:28:08;;;;;;;;;;;;;;;11.72;100.00;98732.47;4857700;29;19971;-71
2022/05/07 07:30:36;;;;;;;;;;;;;;;11.71;100.00;98733.63;4862741;29;19972;-71
2022/05/07 07:33:04;;;;;;;;;;;;;;;11.73;100.00;98736.88;4876739;29;19951;-71
2022/05/07 07:35:31;;;;;;;;;;;;;;;11.79;100.00;98737.28;4854326;29;20257;-71
2022/05/07 07:37:59;;;;;;;;;;;;;;;11.80;100.00;98739.69;4865346;29;19958;-71
2022/05/07 07:40:27;;;;;;;;;;;;;;;11.81;100.00;98738.47;4866276;29;19946;-71
2022/05/07 07:42:54;;;;;;;;;;;;;;;11.85;100.00;98735.72;4866541;29;19951;-71
2022/05/07 07:48:08;;;;;;;;;;;;;;;11.88;100.00;98745.31;4866222;29;19950;-71
2022/05/07 07:50:36;;;;;;;;;;;;;;;11.79;100.00;98746.50;4865341;29;19995;-71
2022/05/07 07:53:09;;;;;;;;;;;;;;;11.78;100.00;98744.91;4865825;29;19960;-71
2022/05/07 07:55:37;;;;;;;;;;;;;;;11.77;100.00;98748.06;4865807;29;19948;-70
2022/05/07 07:58:06;;;;;;;;;;;;;;;11.84;100.00;98745.28;4863413;29;19954;-71
2022/05/07 08:00:35;;;;;;;;;;;;;;;11.84;100.00;98748.09;4863124;29;20624;-70
2022/05/07 08:03:13;;;;;;;;;;;;;;;11.91;100.00;98745.31;4862012;29;19959;-71
2022/05/07 08:05:41;;;;;;;;;;;;;;;11.85;100.00;98749.72;4858637;29;19950;-71
2022/05/07 08:13:43;;;;;;;;;;;;;;;11.91;100.00;98747.34;4861964;29;19983;-71
2022/05/07 08:16:11;;;;;;;;;;;;;;;11.91;100.00;98752.94;4862963;29;19949;-71
2022/05/07 08:18:39;;;;;;;;;;;;;;;11.93;100.00;98759.75;4865628;29;19949;-70
2022/05/07 08:21:07;;;;;;;;;;;;;;;11.96;100.00;98760.97;4865676;29;19972;-71
2022/05/07 08:23:35;;;;;;;;;;;;;;;12.01;100.00;98761.38;4865476;29;19949;-71
2022/05/07 08:26:04;;;;;;;;;;;;;;;12.00;100.00;98756.16;4865011;29;20258;-71
2022/05/07 08:28:31;;;;;;;;;;;;;;;11.94;100.00;98755.75;4864747;29;19950;-71
2022/05/07 08:30:58;;;;;;;;;;;;;;;12.03;100.00;98758.97;4864574;29;19967;-71
2022/05/07 08:33:26;;;;;;;;;;;;;;;12.03;100.00;98760.97;4865149;29;19950;-71
2022/05/07 08:35:53;;;;;;;;;;;;;;;11.93;100.00;98762.56;4865216;29;19958;-71
2022/05/07 08:38:22;;;;;;;;;;;;;;;11.99;100.00;98765.75;4864913;29;19952;-71
2022/05/07 08:40:50;;;;;;;;;;;;;;;12.00;100.00;98756.16;4863708;29;19950;-71
2022/05/07 08:43:18;;;;;;;;;;;;;;;11.98;100.00;98764.16;4863473;29;19952;-71
2022/05/07 08:45:46;;;;;;;;;;;;;;;11.99;100.00;98768.56;4863363;29;19950;-70
2022/05/07 08:48:14;;;;;;;;;;;;;;;12.00;100.00;98761.78;4862495;29;19961;-71
2022/05/07 08:50:41;;;;;;;;;;;;;;;11.92;100.00;98769.34;4861697;29;19968;-71
2022/05/07 08:53:09;;;;;;;;;;;;;;;11.98;100.00;98770.59;4861345;29;19959;-71
2022/05/07 08:55:36;;;;;;;;;;;;;;;11.98;100.00;98773.38;4862963;29;19985;-71
2022/05/07 08:58:03;;;;;;;;;;;;;;;11.97;100.00;98770.97;4853514;29;19964;-71
2022/05/07 09:00:33;;;;;;;;;;;;;;;11.99;100.00;98765.75;4860205;29;19981;-71
2022/05/07 09:03:01;;;;;;;;;;;;;;;11.91;100.00;98769.75;4863702;29;20343;-71
2022/05/07 09:05:35;;;;;;;;;;;;;;;11.93;100.00;98767.34;4861092;29;19984;-71
2022/05/07 09:08:04;;;;;;;;;;;;;;;11.93;100.00;98768.16;4864749;29;19946;-71
2022/05/07 09:10:35;;;;;;;;;;;;;;;11.97;100.00;98768.16;4864492;29;19961;-70
2022/05/07 09:13:09;;;;;;;;;;;;;;;12.00;100.00;98772.97;4864476;29;19954;-71
2022/05/07 09:15:37;;;;;;;;;;;;;;;11.98;100.00;98773.38;4856587;29;19956;-70
2022/05/07 09:18:14;;;;;;;;;;;;;;;11.98;100.00;98764.97;4856767;29;20372;-70
2022/05/07 09:20:41;;;;;;;;;;;;;;;12.12;100.00;98764.19;4862849;29;20259;-71
2022/05/07 09:23:12;;;;;;;;;;;;;;;12.15;100.00;98766.22;4861627;29;19959;-70
2022/05/07 09:25:46;;;;;;;;;;;;;;;12.17;100.00;98773.03;4859282;29;19956;-70
2022/05/07 09:28:13;;;;;;;;;;;;;;;12.19;100.00;98773.44;4853866;29;19951;-70
2022/05/07 09:30:44;;;;;;;;;;;;;;;12.20;100.00;98763.03;4863330;29;19960;-70
2022/05/07 09:33:11;;;;;;;;;;;;;;;12.21;100.00;98765.41;4859717;29;20238;-71
2022/05/07 09:35:47;;;;;;;;;;;;;;;12.21;100.00;98775.84;4862326;29;19964;-71
2022/05/07 09:38:15;;;;;;;;;;;;;;;12.25;100.00;98771.06;4875968;29;19958;-70
2022/05/07 09:40:43;;;;;;;;;;;;;;;12.28;100.00;98761.81;4862663;29;19958;-70
2022/05/07 09:43:11;;;;;;;;;;;;;;;12.31;100.00;98766.63;4850248;29;19952;-70
2022/05/07 09:45:39;;;;;;;;;;;;;;;12.44;100.00;98759.47;4862832;29;20383;-71
2022/05/07 09:48:07;;;;;;;;;;;;;;;12.47;100.00;98759.44;4861968;29;19957;-71
2022/05/07 09:58:38;;;;;;;;;;;;;;;12.73;100.00;98754.66;4861902;29;19959;-70
2022/05/07 10:01:15;;;;;;;;;;;;;;;12.74;100.00;98756.28;4873342;29;19949;-70
2022/05/07 10:03:52;;;;;;;;;;;;;;;12.67;100.00;98756.25;4863491;29;19949;-71
2022/05/07 10:06:19;;;;;;;;;;;;;;;12.64;100.00;98752.28;4868022;29;19957;-70
2022/05/07 10:08:49;;;;;;;;;;;;;;;12.69;100.00;98751.84;4882014;29;19948;-70
2022/05/07 10:11:17;;;;;;;;;;;;;;;12.67;100.00;98751.44;4871658;29;19982;-70
2022/05/07 10:13:52;;;;;;;;;;;;;;;12.62;100.00;98754.66;4862476;29;19960;-71
2022/05/07 10:16:21;;;;;;;;;;;;;;;12.65;100.00;98742.63;4860453;29;19957;-71
2022/05/07 10:18:49;;;;;;;;;;;;;;;12.60;100.00;98748.63;4863445;29;19962;-71
2022/05/07 10:21:18;;;;;;;;;;;;;;;12.62;100.00;98749.03;4863378;29;19976;-70
2022/05/07 10:23:52;;;;;;;;;;;;;;;12.65;100.00;98747.44;4862942;29;19961;-70
2022/05/07 10:26:21;;;;;;;;;;;;;;;12.59;100.00;98741.44;4862929;29;19955;-71
2022/05/07 10:28:48;;;;;;;;;;;;;;;12.61;100.00;98741.03;4862286;29;19977;-71
2022/05/07 10:31:20;;;;;;;;;;;;;;;12.70;100.00;98741.41;4862964;29;19974;-71
2022/05/07 10:33:48;;;;;;;;;;;;;;;12.71;100.00;98746.66;4859145;29;19953;-71
2022/05/07 10:36:15;;;;;;;;;;;;;;;12.65;100.00;98739.00;4861808;29;19951;-71
2022/05/07 10:38:45;;;;;;;;;;;;;;;12.66;100.00;98743.44;4863024;29;19961;-70
2022/05/07 10:41:14;;;;;;;;;;;;;;;12.67;100.00;98736.59;4850800;29;20020;-71
2022/05/07 10:43:43;;;;;;;;;;;;;;;12.66;100.00;98732.22;4859424;29;19953;-71
2022/05/07 10:46:10;;;;;;;;;;;;;;;12.69;100.00;98731.41;4848875;29;19955;-71
2022/05/07 10:48:46;;;;;;;;;;;;;;;12.72;100.00;98733.41;4862334;29;19953;-71
2022/05/07 10:51:19;;;;;;;;;;;;;;;12.78;100.00;98727.00;4862607;29;20022;-71
2022/05/07 10:53:47;;;;;;;;;;;;;;;12.86;100.00;98728.56;4862916;29;19958;-71
2022/05/07 10:56:16;;;;;;;;;;;;;;;12.89;100.00;98730.59;4863180;29;19962;-71
2022/05/07 10:58:44;;;;;;;;;;;;;;;12.97;100.00;98722.97;4862932;29;19955;-70
2022/05/07 11:01:11;;;;;;;;;;;;;;;13.02;100.00;98726.16;4861457;29;19951;-71
2022/05/07 11:03:40;;;;;;;;;;;;;;;13.05;100.00;98727.38;4848524;29;19971;-71
2022/05/07 11:06:07;;;;;;;;;;;;;;;13.08;100.00;98718.16;4864620;29;19954;-71
2022/05/07 11:08:45;;;;;;;;;;;;;;;13.20;100.00;98723.34;4862291;29;19953;-71
2022/05/07 11:11:14;;;;;;;;;;;;;;;13.26;100.00;98727.34;4866499;29;19951;-71
2022/05/07 11:13:47;;;;;;;;;;;;;;;13.25;100.00;98719.31;4865041;29;19959;-71
2022/05/07 11:16:18;;;;;;;;;;;;;;;13.24;100.00;98720.53;4865779;29;19950;-71
2022/05/07 11:18:47;;;;;;;;;;;;;;;13.24;100.00;98712.91;4865962;29;19958;-71
2022/05/07 11:21:15;;;;;;;;;;;;;;;13.29;100.00;98720.09;4866197;29;19973;-70
2022/05/07 11:23:44;;;;;;;;;;;;;;;13.33;100.00;98716.06;4866212;29;20623;-71
2022/05/07 11:26:12;;;;;;;;;;;;;;;13.39;100.00;98714.47;4866429;29;20255;-71
2022/05/07 11:28:41;;;;;;;;;;;;;;;13.47;100.00;98718.06;4866801;29;19979;-71
2022/05/07 11:31:08;;;;;;;;;;;;;;;13.54;100.00;98701.97;4866580;29;19946;-71
2022/05/07 11:33:36;;;;;;;;;;;;;;;13.71;100.00;98703.91;4862617;29;19965;-72
2022/05/07 11:36:08;;;;;;;;;;;;;;;13.70;100.00;98701.47;4847481;29;20258;-71
2022/05/07 11:38:35;;;;;;;;;;;;;;;13.75;100.00;98698.25;4863534;29;19948;-71
2022/05/07 11:41:10;;;;;;;;;;;;;;;13.77;100.00;98699.44;4865956;29;19951;-71
2022/05/07 11:46:23;;;;;;;;;;;;;;;14.13;100.00;98702.06;4864090;29;19957;-71
2022/05/07 11:48:50;;;;;;;;;;;;;;;14.18;100.00;98698.81;4866153;29;20370;-71
2022/05/07 11:51:26;;;;;;;;;;;;;;;14.32;100.00;98698.72;4865791;29;19953;-71
2022/05/07 11:53:53;;;;;;;;;;;;;;;14.16;100.00;98701.22;4865980;29;19961;-71
2022/05/07 11:56:21;;;;;;;;;;;;;;;14.25;100.00;98699.56;4866075;29;19947;-71
2022/05/07 11:58:49;;;;;;;;;;;;;;;14.25;100.00;98698.75;4865390;29;19952;-71
2022/05/07 12:01:24;;;;;;;;;;;;;;;14.29;100.00;98691.88;4865880;29;19952;-71
2022/05/07 12:03:52;;;;;;;;;;;;;;;14.35;100.00;98690.25;4865761;29;19956;-70
2022/05/07 12:06:23;;;;;;;;;;;;;;;14.38;100.00;98683.00;4865483;29;19954;-70
2022/05/07 12:08:50;;;;;;;;;;;;;;;14.48;100.00;98684.94;4866099;29;20161;-71
2022/05/07 12:11:18;;;;;;;;;;;;;;;14.42;100.00;98681.78;4861982;29;19957;-71
2022/05/07 12:13:46;;;;;;;;;;;;;;;14.45;100.00;98680.94;4859143;29;20373;-71
2022/05/07 12:19:00;;;;;;;;;;;;;;;14.64;100.00;98684.41;4865649;29;19953;-71
2022/05/07 12:29:49;;;;;;;;;;;;;;;14.94;100.00;98674.03;4864805;29;19982;-71
2022/05/07 12:32:20;;;;;;;;;;;;;;;15.01;100.00;98676.00;4866854;29;19991;-71
2022/05/07 12:34:48;;;;;;;;;;;;;;;15.07;100.00;98675.13;4852972;29;19957;-71
2022/05/07 12:37:15;;;;;;;;;;;;;;;15.21;100.00;98671.34;4853987;29;19955;-71
2022/05/07 12:39:45;;;;;;;;;;;;;;;15.34;100.00;98674.41;4864228;29;21521;-71
2022/05/07 12:42:12;;;;;;;;;;;;;;;15.37;100.00;98676.41;4861570;29;19960;-71
2022/05/07 12:44:43;;;;;;;;;;;;;;;15.46;100.00;98673.91;4857682;29;19954;-71
2022/05/07 12:47:10;;;;;;;;;;;;;;;15.51;100.00;98670.63;4861860;29;19956;-71
2022/05/07 12:49:38;;;;;;;;;;;;;;;15.38;100.00;98656.25;4861239;29;19963;-71
2022/05/07 12:52:07;;;;;;;;;;;;;;;15.44;100.00;98657.38;4864268;29;19949;-71
2022/05/07 12:54:35;;;;;;;;;;;;;;;15.44;100.00;98656.59;4858651;29;19952;-71
2022/05/07 12:57:05;;;;;;;;;;;;;;;15.52;100.00;98653.31;4863240;29;19962;-71
2022/05/07 12:59:32;;;;;;;;;;;;;;;15.52;100.00;98655.31;4863041;29;19957;-71
2022/05/07 13:02:03;;;;;;;;;;;;;;;15.32;100.00;98657.13;4857574;29;20357;-71
2022/05/07 13:04:32;;;;;;;;;;;;;;;15.18;100.00;98648.84;4860802;29;19956;-71
2022/05/07 13:07:00;;;;;;;;;;;;;;;15.07;100.00;98641.31;4862994;29;19949;-71
2022/05/07 13:09:28;;;;;;;;;;;;;;;14.80;100.00;98650.88;4861879;29;19957;-71
2022/05/07 13:12:13;;;;;;;;;;;;;;;14.85;100.00;98647.59;4861720;29;19949;-71
2022/05/07 13:14:40;;;;;;;;;;;;;;;14.78;100.00;98645.66;4850578;29;20316;-71
2022/05/07 13:17:08;;;;;;;;;;;;;;;14.66;100.00;98643.38;4862282;29;19959;-72
2022/05/07 13:19:35;;;;;;;;;;;;;;;14.66;100.00;98640.56;4863815;29;20256;-72
2022/05/07 13:22:03;;;;;;;;;;;;;;;14.60;100.00;98647.06;4863468;29;19951;-71
2022/05/07 13:24:30;;;;;;;;;;;;;;;14.57;100.00;98631.81;4852608;29;20355;-71
2022/05/07 13:26:57;;;;;;;;;;;;;;;14.59;100.00;98635.00;4862879;29;19959;-71
2022/05/07 13:29:26;;;;;;;;;;;;;;;14.60;100.00;98622.50;4859403;29;19966;-70
2022/05/07 13:31:53;;;;;;;;;;;;;;;14.65;100.00;98616.44;4861678;29;19959;-70
2022/05/07 13:34:21;;;;;;;;;;;;;;;14.68;100.00;98615.59;4853611;29;19965;-71
2022/05/07 13:36:50;;;;;;;;;;;;;;;14.76;100.00;98619.16;4862313;29;19977;-72
2022/05/07 13:39:17;;;;;;;;;;;;;;;14.81;100.00;98610.25;4857943;29;20247;-71
2022/05/07 13:41:46;;;;;;;;;;;;;;;14.82;100.00;98604.19;4860753;29;19951;-71
2022/05/07 13:44:13;;;;;;;;;;;;;;;14.88;100.00;98608.16;4861364;29;19958;-71
2022/05/07 13:46:42;;;;;;;;;;;;;;;14.94;100.00;98611.31;4861025;29;19961;-71
2022/05/07 13:49:11;;;;;;;;;;;;;;;15.01;100.00;98605.59;4862986;29;19983;-71
2022/05/07 13:51:38;;;;;;;;;;;;;;;15.03;100.00;98598.31;4863187;29;20245;-71
2022/05/07 13:54:05;;;;;;;;;;;;;;;15.14;100.00;98606.63;4862549;29;19968;-71
2022/05/07 13:56:32;;;;;;;;;;;;;;;15.21;100.00;98602.94;4861144;29;19956;-70
2022/05/07 13:59:00;;;;;;;;;;;;;;;15.19;100.00;98597.72;4861543;29;19949;-71
2022/05/07 14:01:27;;;;;;;;;;;;;;;15.20;100.00;98592.88;4860281;29;19956;-71
2022/05/07 14:03:55;;;;;;;;;;;;;;;15.18;100.00;98595.34;4863445;29;19954;-71
2022/05/07 14:06:22;;;;;;;;;;;;;;;15.18;100.00;98584.06;4859767;29;20255;-71
2022/05/07 14:08:50;;;;;;;;;;;;;;;15.32;100.00;98595.16;4858476;29;19982;-71
2022/05/07 14:11:17;;;;;;;;;;;;;;;15.31;100.00;98591.53;4860414;29;19956;-71
2022/05/07 14:13:45;;;;;;;;;;;;;;;15.35;100.00;98583.84;4862103;29;19970;-71
2022/05/07 14:16:12;;;;;;;;;;;;;;;15.42;100.00;98580.13;4862928;29;19956;-71
2022/05/07 14:18:39;;;;;;;;;;;;;;;15.51;100.00;98586.06;4862867;29;19959;-71
2022/05/07 14:21:06;;;;;;;;;;;;;;;15.56;100.00;98579.94;4860793;29;19971;-70
2022/05/07 14:23:34;;;;;;;;;;;;;;;15.62;100.00;98589.53;4862414;29;19970;-70
2022/05/07 14:26:01;;;;;;;;;;;;;;;15.63;100.00;98589.09;4862513;29;19949;-70
2022/05/07 14:28:30;;;;;;;;;;;;;;;15.53;100.00;98583.59;4861053;29;19956;-71
2022/05/07 14:30:58;;;;;;;;;;;;;;;15.57;100.00;98587.19;4861725;29;19958;-70
2022/05/07 14:33:25;;;;;;;;;;;;;;;15.57;100.00;98581.56;4859186;29;19967;-71
2022/05/07 14:35:52;;;;;;;;;;;;;;;15.67;100.00;98578.56;4862845;29;19963;-70
2022/05/07 14:38:20;;;;;;;;;;;;;;;15.66;100.00;98577.00;4862250;29;20034;-70
2022/05/07 14:40:48;;;;;;;;;;;;;;;15.78;100.00;98575.59;4861938;29;19966;-70
2022/05/07 14:43:17;;;;;;;;;;;;;;;15.79;100.00;98565.94;4862153;29;19955;-70
2022/05/07 14:45:44;;;;;;;;;;;;;;;15.80;100.00;98561.88;4858137;29;19952;-71
2022/05/07 14:48:11;;;;;;;;;;;;;;;15.92;100.00;98569.72;4857370;29;19955;-70
2022/05/07 14:50:38;;;;;;;;;;;;;;;16.00;100.00;98567.59;4859051;29;19954;-67
2022/05/07 14:53:06;;;;;;;;;;;;;;;16.05;100.00;98565.09;4856846;29;19991;-67
2022/05/07 14:55:33;;;;;;;;;;;;;;;15.93;100.00;98570.53;4859562;29;19952;-69
2022/05/07 14:58:03;;;;;;;;;;;;;;;15.86;100.00;98565.00;4860529;29;19958;-68
2022/05/07 15:00:31;;;;;;;;;;;;;;;15.72;100.00;98574.50;4862558;29;20002;-67
2022/05/07 15:02:58;;;;;;;;;;;;;;;15.72;100.00;98572.44;4861470;29;19949;-67
2022/05/07 15:05:25;;;;;;;;;;;;;;;15.70;100.00;98569.25;4860716;29;19949;-68
2022/05/07 15:07:52;;;;;;;;;;;;;;;15.70;100.00;98565.63;4861880;29;19971;-68
2022/05/07 15:10:35;;;;;;;;;;;;;;;15.64;100.00;98561.72;4862832;29;19957;-68
2022/05/07 15:13:06;;;;;;;;;;;;;;;15.75;100.00;98565.16;4858422;29;19951;-68
2022/05/07 15:15:39;;;;;;;;;;;;;;;15.74;100.00;98555.94;4858531;29;19953;-68
2022/05/07 15:18:08;;;;;;;;;;;;;;;15.78;100.00;98562.31;4859782;29;19962;-68
2022/05/07 15:20:36;;;;;;;;;;;;;;;15.61;100.00;98557.72;4860107;29;19971;-69
2022/05/07 15:23:03;;;;;;;;;;;;;;;15.62;100.00;98562.16;4861050;29;19959;-69
2022/05/07 15:25:31;;;;;;;;;;;;;;;15.57;100.00;98564.66;4859780;29;19957;-68
2022/05/07 15:27:58;;;;;;;;;;;;;;;15.45;100.00;98571.66;4857767;29;19976;-67
2022/05/07 15:30:25;;;;;;;;;;;;;;;15.35;100.00;98557.69;4860624;29;19963;-68
2022/05/07 15:38:24;;;;;;;;;;;;;;;15.04;100.00;98554.84;4857939;29;19960;-71
2022/05/07 15:40:51;;;;;;;;;;;;;;;15.04;100.00;98554.03;4858222;29;19958;-70
2022/05/07 15:43:19;;;;;;;;;;;;;;;14.99;100.00;98558.13;4858843;29;19953;-70
2022/05/07 15:45:46;;;;;;;;;;;;;;;14.89;100.00;98563.91;4860631;29;19959;-70
2022/05/07 15:48:14;;;;;;;;;;;;;;;14.82;100.00;98552.69;4861052;29;19953;-71
2022/05/07 15:50:42;;;;;;;;;;;;;;;14.79;100.00;98557.19;4863525;29;20234;-70
2022/05/07 15:53:09;;;;;;;;;;;;;;;14.73;100.00;98556.03;4860952;29;19953;-70
2022/05/07 15:55:37;;;;;;;;;;;;;;;14.68;100.00;98553.69;4864058;29;19949;-70
2022/05/07 15:58:04;;;;;;;;;;;;;;;14.67;100.00;98549.25;4863485;29;19955;-71
2022/05/07 16:00:34;;;;;;;;;;;;;;;14.65;100.00;98540.44;4861579;29;19949;-70
2022/05/07 16:03:01;;;;;;;;;;;;;;;14.66;100.00;98552.50;4861171;29;19957;-71
2022/05/07 16:05:28;;;;;;;;;;;;;;;14.67;100.00;98546.44;4864866;29;19949;-70
2022/05/07 16:07:55;;;;;;;;;;;;;;;14.70;100.00;98544.81;4865249;29;19950;-71
2022/05/07 16:10:25;;;;;;;;;;;;;;;14.70;100.00;98550.44;4865167;29;19948;-71
2022/05/07 16:12:54;;;;;;;;;;;;;;;14.69;100.00;98555.28;4861646;29;20320;-71
2022/05/07 16:15:21;;;;;;;;;;;;;;;14.68;100.00;98550.06;4861461;29;20381;-71
2022/05/07 16:17:48;;;;;;;;;;;;;;;14.69;100.00;98548.84;4860803;29;19951;-71
2022/05/07 16:20:16;;;;;;;;;;;;;;;14.71;100.00;98549.22;4862656;29;19976;-71
2022/05/07 16:25:29;;;;;;;;;;;;;;;14.67;100.00;98545.66;4864023;29;19955;-71
2022/05/07 16:27:56;;;;;;;;;;;;;;;14.68;100.00;98539.59;4862764;29;19951;-71
2022/05/07 16:30:24;;;;;;;;;;;;;;;14.70;100.00;98539.97;4864296;29;20653;-71
2022/05/07 16:32:52;;;;;;;;;;;;;;;14.66;100.00;98539.22;4861608;29;20387;-70
2022/05/07 16:35:19;;;;;;;;;;;;;;;14.64;100.00;98538.06;4865001;29;19977;-70
2022/05/07 16:37:47;;;;;;;;;;;;;;;14.62;100.00;98541.28;4862525;29;19956;-68
2022/05/07 16:40:14;;;;;;;;;;;;;;;14.61;100.00;98539.69;4863190;29;19984;-70
2022/05/07 16:42:41;;;;;;;;;;;;;;;14.60;100.00;98538.06;4860960;29;19951;-69
2022/05/07 16:45:09;;;;;;;;;;;;;;;14.58;100.00;98536.91;4863387;29;19948;-71
2022/05/07 16:47:40;;;;;;;;;;;;;;;14.56;100.00;98531.69;4863148;29;19974;-70
2022/05/07 16:50:07;;;;;;;;;;;;;;;14.59;100.00;98539.31;4861535;29;19955;-69
2022/05/07 16:52:39;;;;;;;;;;;;;;;14.61;100.00;98541.69;4863479;29;19961;-69
2022/05/07 16:55:12;;;;;;;;;;;;;;;14.58;100.00;98536.91;4859290;29;19972;-70
2022/05/07 16:57:42;;;;;;;;;;;;;;;14.58;100.00;98542.53;4860759;29;19950;-69
2022/05/07 17:00:09;;;;;;;;;;;;;;;14.55;100.00;98549.78;4863926;29;20399;-69
2022/05/07 17:02:37;;;;;;;;;;;;;;;14.53;100.00;98562.69;4860196;29;20368;-68
2022/05/07 17:05:04;;;;;;;;;;;;;;;14.48;100.00;98564.75;4861427;29;19952;-69
2022/05/07 17:07:32;;;;;;;;;;;;;;;14.41;100.00;98562.00;4861981;29;19958;-68
2022/05/07 17:10:00;;;;;;;;;;;;;;;14.39;100.00;98560.81;4860321;29;19961;-70
2022/05/07 17:12:28;;;;;;;;;;;;;;;14.34;100.00;98555.63;4859429;29;19963;-70
2022/05/07 17:14:55;;;;;;;;;;;;;;;14.24;100.00;98564.94;4862776;29;19968;-69
2022/05/07 17:17:22;;;;;;;;;;;;;;;14.16;100.00;98552.97;4860911;29;20334;-69
2022/05/07 17:19:51;;;;;;;;;;;;;;;14.13;100.00;98550.19;4853897;29;19981;-69
2022/05/07 17:22:18;;;;;;;;;;;;;;;14.10;100.00;98551.03;4854708;29;19956;-69
2022/05/07 17:24:46;;;;;;;;;;;;;;;14.09;100.00;98555.03;4859401;29;19957;-70
2022/05/07 17:27:13;;;;;;;;;;;;;;;13.99;100.00;98553.09;4858156;29;20531;-70
2022/05/07 17:29:41;;;;;;;;;;;;;;;13.92;100.00;98556.78;4857270;29;19956;-68
2022/05/07 17:32:09;;;;;;;;;;;;;;;13.87;100.00;98559.22;4858301;29;19962;-69
2022/05/07 17:34:37;;;;;;;;;;;;;;;13.80;100.00;98557.28;4857061;29;19969;-70
2022/05/07 17:37:05;;;;;;;;;;;;;;;13.75;100.00;98557.72;4860117;29;19962;-72
2022/05/07 17:39:32;;;;;;;;;;;;;;;13.74;100.00;98562.53;4858716;29;19948;-71
2022/05/07 17:42:04;;;;;;;;;;;;;;;13.68;100.00;98557.78;4860895;29;19955;-70
2022/05/07 17:44:31;;;;;;;;;;;;;;;13.65;100.00;98558.59;4856828;29;19951;-70
2022/05/07 17:46:58;;;;;;;;;;;;;;;13.57;100.00;98563.47;4860416;29;19949;-70
2022/05/07 17:49:27;;;;;;;;;;;;;;;13.54;100.00;98560.69;4860597;29;20376;-70